createdAt,value
2018-06-28T00:00:14.142Z,67.88
2018-06-28T00:01:14.134Z,67.33
2018-06-28T00:02:14.149Z,67.59
2018-06-28T00:03:14.180Z,67.43
2018-06-28T00:04:14.214Z,67.97
2018-06-28T00:05:14.171Z,67.78
2018-06-28T00:06:14.131Z,67.82
2018-06-28T00:07:14.211Z,67.49
2018-06-28T00:08:14.171Z,67.49
2018-06-28T00:09:14.161Z,67.82
2018-06-28T00:10:14.251Z,67.78
2018-06-28T00:11:14.203Z,67.78
2018-06-28T00:12:14.212Z,67.49
2018-06-28T00:13:14.200Z,67.78
2018-06-28T00:14:14.166Z,68.07
2018-06-28T00:15:14.175Z,67.88
2018-06-28T00:16:14.182Z,67.52
2018-06-28T00:17:14.190Z,67.59
2018-06-28T00:18:14.220Z,68.01
2018-06-28T00:19:14.204Z,68.01
2018-06-28T00:20:14.189Z,67.97
2018-06-28T00:21:14.174Z,67.62
2018-06-28T00:22:14.214Z,67.49
2018-06-28T00:23:14.162Z,67.97
2018-06-28T00:24:14.186Z,67.91
2018-06-28T00:25:14.235Z,67.78
2018-06-28T00:26:14.197Z,68.3
2018-06-28T00:27:14.208Z,68.2
2018-06-28T00:28:14.158Z,68.01
2018-06-28T00:29:14.173Z,67.97
2018-06-28T00:30:14.152Z,68.07
2018-06-28T00:31:14.203Z,68.2
2018-06-28T00:32:14.222Z,68.17
2018-06-28T00:33:14.194Z,67.97
2018-06-28T00:34:14.237Z,68.46
2018-06-28T00:35:14.240Z,68.36
2018-06-28T00:36:14.210Z,68.88
2018-06-28T00:37:14.243Z,68.84
2018-06-28T00:38:14.222Z,68.78
2018-06-28T00:39:14.211Z,68.4
2018-06-28T00:40:14.248Z,68.88
2018-06-28T00:41:14.202Z,68.78
2018-06-28T00:42:14.223Z,68.78
2018-06-28T00:43:14.243Z,68.17
2018-06-28T00:44:14.568Z,68.49
2018-06-28T00:45:14.218Z,68.46
2018-06-28T00:46:14.225Z,68.78
2018-06-28T00:47:14.194Z,68.75
2018-06-28T00:48:14.214Z,69.04
2018-06-28T00:49:14.202Z,68.07
2018-06-28T00:50:14.225Z,68.46
2018-06-28T00:51:14.231Z,68.55
2018-06-28T00:52:14.220Z,68.65
2018-06-28T00:53:14.278Z,68.55
2018-06-28T00:54:14.233Z,68.84
2018-06-28T00:55:14.233Z,68.94
2018-06-28T00:56:14.220Z,69.04
2018-06-28T00:57:14.252Z,68.94
2018-06-28T00:58:14.264Z,69.04
2018-06-28T00:59:14.260Z,69.23
2018-06-28T01:00:14.264Z,69.04
2018-06-28T01:01:14.220Z,69.04
2018-06-28T01:02:14.236Z,69.04
2018-06-28T01:03:14.248Z,69.07
2018-06-28T01:04:14.275Z,69.04
2018-06-28T01:05:14.259Z,69.04
2018-06-28T01:06:14.259Z,68.94
2018-06-28T01:07:14.259Z,69.13
2018-06-28T01:08:14.267Z,69.13
2018-06-28T01:09:14.261Z,68.94
2018-06-28T01:10:14.239Z,68.84
2018-06-28T01:11:14.297Z,68.94
2018-06-28T01:12:14.251Z,69.04
2018-06-28T01:13:14.276Z,69.13
2018-06-28T01:14:14.254Z,68.94
2018-06-28T01:15:14.269Z,68.75
2018-06-28T01:16:14.274Z,69.13
2018-06-28T01:17:14.281Z,68.94
2018-06-28T01:18:14.273Z,69.13
2018-06-28T01:19:15.592Z,69.13
2018-06-28T01:20:14.271Z,68.65
2018-06-28T01:21:14.289Z,68.55
2018-06-28T01:24:21.567Z,69.32
2018-06-28T01:24:33.034Z,69.32
2018-06-28T01:25:33.000Z,69.9
2018-06-28T01:26:33.084Z,69.52
2018-06-28T01:27:33.018Z,69.42
2018-06-28T01:28:33.043Z,69.71
2018-06-28T01:29:33.022Z,69.52
2018-06-28T01:30:33.023Z,70
2018-06-28T01:31:33.057Z,69.9
2018-06-28T01:32:33.011Z,70
2018-06-28T01:33:33.048Z,69.62
2018-06-28T01:34:33.049Z,69.9
2018-06-28T01:35:33.041Z,69.52
2018-06-28T01:36:33.045Z,69.32
2018-06-28T01:37:33.043Z,69.13
2018-06-28T01:38:33.109Z,68.84
2018-06-28T01:39:33.062Z,68.94
2018-06-28T01:40:33.064Z,68.94
2018-06-28T01:41:33.077Z,68.55
2018-06-28T01:42:33.066Z,69.04
2018-06-28T01:43:33.066Z,69.04
2018-06-28T01:44:33.045Z,69.04
2018-06-28T01:45:33.053Z,69.23
2018-06-28T01:46:33.085Z,69.62
2018-06-28T01:47:33.121Z,69.52
2018-06-28T01:48:33.071Z,69.04
2018-06-28T01:49:33.097Z,68.94
2018-06-28T01:50:33.101Z,68.84
2018-06-28T01:51:33.065Z,69.32
2018-06-28T01:52:33.073Z,69.32
2018-06-28T01:53:33.054Z,69.52
2018-06-28T01:54:33.393Z,69.13
2018-06-28T01:55:33.095Z,68.84
2018-06-28T01:56:33.061Z,68.94
2018-06-28T01:57:33.080Z,68.94
2018-06-28T01:58:33.080Z,68.94
2018-06-28T01:59:33.121Z,69.13
2018-06-28T02:00:33.149Z,68.94
2018-06-28T02:01:33.122Z,68.65
2018-06-28T02:02:33.107Z,69.04
2018-06-28T02:03:33.118Z,69.13
2018-06-28T02:04:33.099Z,68.94
2018-06-28T02:05:33.073Z,68.94
2018-06-28T02:06:33.059Z,68.84
2018-06-28T02:07:33.118Z,69.04
2018-06-28T02:08:33.097Z,69.13
2018-06-28T02:09:33.073Z,69.04
2018-06-28T02:10:33.102Z,69.13
2018-06-28T02:11:33.083Z,69.23
2018-06-28T02:12:33.076Z,69.04
2018-06-28T02:13:33.136Z,69.13
2018-06-28T02:14:33.077Z,68.75
2018-06-28T02:15:33.145Z,69.04
2018-06-28T02:16:33.101Z,69.04
2018-06-28T02:17:33.097Z,69.23
2018-06-28T02:18:33.102Z,68.94
2018-06-28T02:19:33.110Z,69.23
2018-06-28T02:20:33.123Z,69.13
2018-06-28T02:21:33.137Z,68.55
2018-06-28T02:22:33.210Z,68.65
2018-06-28T02:23:33.203Z,69.04
2018-06-28T02:24:33.460Z,69.32
2018-06-28T02:25:33.162Z,68.65
2018-06-28T02:26:33.131Z,68.65
2018-06-28T02:27:33.100Z,68.75
2018-06-28T02:28:33.142Z,69.13
2018-06-28T02:29:33.111Z,69.32
2018-06-28T02:30:33.132Z,69.04
2018-06-28T02:31:33.121Z,68.84
2018-06-28T02:32:33.128Z,68.84
2018-06-28T02:33:33.155Z,68.65
2018-06-28T02:34:33.121Z,69.13
2018-06-28T02:35:33.110Z,69.13
2018-06-28T02:36:33.130Z,69.13
2018-06-28T02:37:33.130Z,69.23
2018-06-28T02:38:33.130Z,68.84
2018-06-28T02:39:33.145Z,69.13
2018-06-28T02:40:33.145Z,69.13
2018-06-28T02:41:33.155Z,68.84
2018-06-28T02:42:33.166Z,69.13
2018-06-28T02:43:33.194Z,69.04
2018-06-28T02:44:33.186Z,69.04
2018-06-28T02:45:33.155Z,69.04
2018-06-28T02:46:33.163Z,69.32
2018-06-28T02:47:33.144Z,68.94
2018-06-28T02:48:33.148Z,68.94
2018-06-28T02:49:33.152Z,69.04
2018-06-28T02:50:33.173Z,69.23
2018-06-28T02:51:33.140Z,69.04
2018-06-28T02:52:33.173Z,68.84
2018-06-28T02:53:33.127Z,69.13
2018-06-28T02:54:33.187Z,69.13
2018-06-28T02:55:33.197Z,69.23
2018-06-28T02:56:33.173Z,68.94
2018-06-28T02:57:33.184Z,69.04
2018-06-28T02:58:33.166Z,68.94
2018-06-28T02:59:33.202Z,69.23
2018-06-28T03:00:33.175Z,68.65
2018-06-28T03:01:33.207Z,68.84
2018-06-28T03:02:33.190Z,69.23
2018-06-28T03:03:33.244Z,68.94
2018-06-28T03:04:33.152Z,69.13
2018-06-28T03:05:33.178Z,69.04
2018-06-28T03:06:33.220Z,68.46
2018-06-28T03:07:33.224Z,68.84
2018-06-28T03:08:33.253Z,68.75
2018-06-28T03:09:33.211Z,68.94
2018-06-28T03:10:33.224Z,69.13
2018-06-28T03:11:33.221Z,68.84
2018-06-28T03:12:33.201Z,69.04
2018-06-28T03:13:33.194Z,68.94
2018-06-28T03:14:33.190Z,69.32
2018-06-28T03:15:33.238Z,69.42
2018-06-28T03:16:33.234Z,69.04
2018-06-28T03:17:33.236Z,68.94
2018-06-28T03:18:33.258Z,69.04
2018-06-28T03:19:33.199Z,69.13
2018-06-28T03:20:33.237Z,69.13
2018-06-28T03:21:33.219Z,69.23
2018-06-28T03:22:33.245Z,68.84
2018-06-28T03:23:33.281Z,69.04
2018-06-28T03:24:33.206Z,68.94
2018-06-28T03:25:33.216Z,69.04
2018-06-28T03:26:33.305Z,69.04
2018-06-28T03:27:33.221Z,69.04
2018-06-28T03:28:33.240Z,69.04
2018-06-28T03:29:33.235Z,69.23
2018-06-28T03:30:33.250Z,69.04
2018-06-28T03:31:33.252Z,68.84
2018-06-28T03:32:33.230Z,69.23
2018-06-28T03:33:33.234Z,68.94
2018-06-28T03:34:33.220Z,68.55
2018-06-28T03:35:33.236Z,68.71
2018-06-28T03:36:33.235Z,68.81
2018-06-28T03:37:33.219Z,69
2018-06-28T03:38:33.230Z,69.32
2018-06-28T03:39:33.251Z,69.13
2018-06-28T03:40:33.256Z,69.13
2018-06-28T03:41:33.241Z,69.04
2018-06-28T03:42:33.215Z,69.32
2018-06-28T03:43:33.249Z,69.13
2018-06-28T03:44:33.255Z,68.84
2018-06-28T03:45:33.235Z,68.94
2018-06-28T03:46:33.249Z,69.23
2018-06-28T03:47:33.278Z,69.32
2018-06-28T03:48:33.290Z,69.23
2018-06-28T03:49:33.264Z,69.04
2018-06-28T03:50:33.276Z,69.23
2018-06-28T03:51:33.288Z,68.94
2018-06-28T03:52:33.262Z,69.32
2018-06-28T03:53:33.263Z,68.84
2018-06-28T03:54:33.284Z,69.04
2018-06-28T03:55:33.330Z,69.13
2018-06-28T03:56:33.271Z,68.91
2018-06-28T03:57:33.357Z,69.04
2018-06-28T03:58:33.277Z,69.23
2018-06-28T03:59:33.303Z,69.04
2018-06-28T04:00:33.311Z,69.13
2018-06-28T04:01:33.291Z,69.04
2018-06-28T04:02:33.244Z,68.84
2018-06-28T04:03:33.329Z,69.13
2018-06-28T04:04:33.296Z,68.94
2018-06-28T04:05:33.324Z,69.04
2018-06-28T04:06:33.339Z,69.13
2018-06-28T04:07:33.338Z,68.65
2018-06-28T04:08:33.365Z,69.04
2018-06-28T04:09:33.304Z,68.75
2018-06-28T04:10:33.357Z,69.13
2018-06-28T04:11:33.316Z,69.13
2018-06-28T04:12:33.297Z,69.23
2018-06-28T04:13:33.303Z,69.23
2018-06-28T04:14:33.273Z,68.84
2018-06-28T04:15:33.306Z,68.94
2018-06-28T04:16:33.371Z,69.32
2018-06-28T04:17:33.344Z,68.91
2018-06-28T04:18:33.356Z,68.94
2018-06-28T04:19:33.319Z,69.04
2018-06-28T04:20:33.295Z,69.23
2018-06-28T04:21:33.325Z,68.94
2018-06-28T04:22:33.326Z,69.13
2018-06-28T04:23:33.340Z,69.23
2018-06-28T04:24:33.363Z,68.84
2018-06-28T04:25:33.335Z,68.94
2018-06-28T04:26:33.389Z,68.84
2018-06-28T04:27:33.403Z,69.04
2018-06-28T04:28:33.375Z,68.81
2018-06-28T04:29:33.360Z,69.13
2018-06-28T04:30:33.339Z,69.23
2018-06-28T04:31:33.360Z,69.04
2018-06-28T04:32:33.381Z,69.04
2018-06-28T04:33:33.397Z,69.52
2018-06-28T04:34:33.328Z,69.04
2018-06-28T04:35:33.364Z,69.32
2018-06-28T04:36:33.369Z,69.32
2018-06-28T04:37:33.356Z,69.32
2018-06-28T04:38:33.384Z,69.32
2018-06-28T04:39:33.350Z,69.42
2018-06-28T04:40:33.370Z,69.32
2018-06-28T04:41:33.337Z,69.23
2018-06-28T04:42:33.358Z,69.13
2018-06-28T04:43:33.364Z,69.23
2018-06-28T04:44:33.380Z,69.23
2018-06-28T04:45:33.336Z,69.23
2018-06-28T04:46:33.336Z,69.32
2018-06-28T04:47:33.414Z,69.32
2018-06-28T04:48:33.418Z,69.13
2018-06-28T04:49:33.402Z,69.13
2018-06-28T04:50:33.390Z,69.23
2018-06-28T04:51:33.368Z,69.32
2018-06-28T04:52:33.376Z,69.23
2018-06-28T04:53:33.557Z,69.23
2018-06-28T04:54:33.415Z,69.04
2018-06-28T04:55:33.368Z,69.23
2018-06-28T04:56:33.348Z,69.13
2018-06-28T04:57:33.409Z,69.13
2018-06-28T04:58:33.386Z,68.94
2018-06-28T04:59:33.412Z,68.75
2018-06-28T05:00:34.809Z,68.36
2018-06-28T05:01:33.448Z,69.04
2018-06-28T05:02:33.416Z,69
2018-06-28T05:03:33.491Z,68.94
2018-06-28T05:04:33.423Z,69
2018-06-28T05:05:33.472Z,69
2018-06-28T05:06:33.729Z,69.32
2018-06-28T05:07:33.431Z,69.62
2018-06-28T05:08:33.434Z,68.84
2018-06-28T05:09:33.379Z,69.2
2018-06-28T05:10:33.485Z,68.94
2018-06-28T05:11:33.416Z,68.94
2018-06-28T05:12:33.398Z,68.81
2018-06-28T05:13:33.430Z,69
2018-06-28T05:14:33.447Z,69.29
2018-06-28T05:15:33.420Z,68.81
2018-06-28T05:16:33.446Z,69.58
2018-06-28T05:17:33.462Z,69.2
2018-06-28T05:18:33.423Z,69.29
2018-06-28T05:19:33.475Z,69.52
2018-06-28T05:20:33.411Z,69.29
2018-06-28T05:21:33.411Z,68.84
2018-06-28T05:22:33.434Z,68.81
2018-06-28T05:23:33.456Z,69.2
2018-06-28T05:24:33.462Z,69.1
2018-06-28T05:25:33.435Z,69.39
2018-06-28T05:26:33.425Z,69.49
2018-06-28T05:27:33.465Z,69.87
2018-06-28T05:28:33.565Z,69
2018-06-28T05:29:33.523Z,69.58
2018-06-28T05:30:33.488Z,69.2
2018-06-28T05:31:33.474Z,69.39
2018-06-28T05:32:33.476Z,69.78
2018-06-28T05:33:33.455Z,69.49
2018-06-28T05:34:33.532Z,69.2
2018-06-28T05:35:33.854Z,69.68
2018-06-28T05:36:33.463Z,69.87
2018-06-28T05:37:33.536Z,69.97
2018-06-28T05:38:33.479Z,69.49
2018-06-28T05:39:33.463Z,69.87
2018-06-28T05:40:33.459Z,69.39
2018-06-28T05:41:33.446Z,69.1
2018-06-28T05:42:33.559Z,69.49
2018-06-28T05:43:33.470Z,69.49
2018-06-28T05:44:33.483Z,69.26
2018-06-28T05:45:33.510Z,69.49
2018-06-28T05:46:33.441Z,69
2018-06-28T05:47:33.461Z,68.97
2018-06-28T05:48:33.482Z,69.35
2018-06-28T05:49:33.464Z,69.45
2018-06-28T05:50:33.469Z,69.29
2018-06-28T05:51:33.469Z,69.55
2018-06-28T05:52:33.505Z,69.29
2018-06-28T05:53:33.488Z,69.45
2018-06-28T05:54:33.493Z,69.29
2018-06-28T05:55:33.471Z,69
2018-06-28T05:56:33.471Z,68.97
2018-06-28T05:57:33.489Z,69.45
2018-06-28T05:58:33.492Z,69.26
2018-06-28T05:59:33.480Z,68.91
2018-06-28T06:00:33.485Z,69.45
2018-06-28T06:01:33.465Z,69.64
2018-06-28T06:02:33.596Z,69.45
2018-06-28T06:03:33.502Z,69.55
2018-06-28T06:04:33.498Z,69.55
2018-06-28T06:05:33.486Z,69.74
2018-06-28T06:06:33.518Z,69.64
2018-06-28T06:07:33.500Z,69.45
2018-06-28T06:08:33.479Z,69.93
2018-06-28T06:09:33.459Z,69.64
2018-06-28T06:10:33.494Z,69.45
2018-06-28T06:11:33.645Z,69.71
2018-06-28T06:12:33.487Z,69.74
2018-06-28T06:13:33.504Z,69.35
2018-06-28T06:14:33.498Z,69.64
2018-06-28T06:15:33.531Z,69.64
2018-06-28T06:16:33.511Z,69.64
2018-06-28T06:17:33.539Z,69.55
2018-06-28T06:18:33.523Z,69.45
2018-06-28T06:19:33.531Z,69.64
2018-06-28T06:20:33.491Z,69.45
2018-06-28T06:21:33.541Z,69.45
2018-06-28T06:22:33.552Z,69.29
2018-06-28T06:23:33.562Z,69.26
2018-06-28T06:24:33.509Z,69.45
2018-06-28T06:25:33.542Z,69.35
2018-06-28T06:26:33.576Z,69.84
2018-06-28T06:27:33.501Z,69.55
2018-06-28T06:28:33.561Z,69.64
2018-06-28T06:29:33.551Z,69.45
2018-06-28T06:30:33.520Z,69.55
2018-06-28T06:31:33.555Z,69.35
2018-06-28T06:32:33.508Z,69.74
2018-06-28T06:33:33.548Z,69.74
2018-06-28T06:34:33.522Z,69.84
2018-06-28T06:35:33.531Z,69.93
2018-06-28T06:36:33.540Z,69.74
2018-06-28T06:37:33.570Z,69.55
2018-06-28T06:38:33.580Z,69.74
2018-06-28T06:39:33.559Z,70.03
2018-06-28T06:40:33.534Z,69.64
2018-06-28T06:41:33.569Z,70.22
2018-06-28T06:42:33.560Z,70.42
2018-06-28T06:43:33.555Z,70.13
2018-06-28T06:44:33.578Z,70.03
2018-06-28T06:45:33.731Z,70.28
2018-06-28T06:46:33.560Z,70.03
2018-06-28T06:47:33.559Z,70.13
2018-06-28T06:48:33.589Z,70.22
2018-06-28T06:49:33.555Z,70.13
2018-06-28T06:50:33.580Z,70.22
2018-06-28T06:51:33.591Z,69.74
2018-06-28T06:52:33.590Z,69.55
2018-06-28T06:53:33.551Z,69.64
2018-06-28T06:54:33.564Z,69.26
2018-06-28T06:55:33.557Z,69.45
2018-06-28T06:56:33.592Z,69.93
2018-06-28T06:57:33.686Z,69.93
2018-06-28T06:58:33.610Z,69.45
2018-06-28T06:59:33.705Z,69.45
2018-06-28T07:00:33.614Z,69.55
2018-06-28T07:01:33.606Z,70.03
2018-06-28T07:02:33.603Z,69.74
2018-06-28T07:03:33.667Z,69.45
2018-06-28T07:04:33.629Z,69.64
2018-06-28T07:05:33.635Z,69.84
2018-06-28T07:06:33.604Z,69.74
2018-06-28T07:07:33.584Z,69.74
2018-06-28T07:08:33.617Z,69.45
2018-06-28T07:09:33.599Z,70.03
2018-06-28T07:10:33.724Z,69.68
2018-06-28T07:11:33.600Z,69.45
2018-06-28T07:12:33.592Z,70.03
2018-06-28T07:13:33.649Z,70.32
2018-06-28T07:14:33.576Z,69.68
2018-06-28T07:15:33.698Z,70.26
2018-06-28T07:16:33.696Z,70.42
2018-06-28T07:17:33.624Z,70.16
2018-06-28T07:18:33.625Z,70.61
2018-06-28T07:19:33.616Z,70.7
2018-06-28T07:20:33.625Z,70.9
2018-06-28T07:21:33.609Z,70.42
2018-06-28T07:22:33.620Z,70.42
2018-06-28T07:23:33.667Z,71
2018-06-28T07:24:33.650Z,70.32
2018-06-28T07:25:33.656Z,70.51
2018-06-28T07:26:33.634Z,70.61
2018-06-28T07:27:33.646Z,70.8
2018-06-28T07:28:33.801Z,71.03
2018-06-28T07:29:33.650Z,70.8
2018-06-28T07:30:33.645Z,70.9
2018-06-28T07:31:33.666Z,70.51
2018-06-28T07:32:33.645Z,70.61
2018-06-28T07:33:33.663Z,70.51
2018-06-28T07:34:33.683Z,70.61
2018-06-28T07:35:33.642Z,70.7
2018-06-28T07:36:33.655Z,70.51
2018-06-28T07:37:33.656Z,70.13
2018-06-28T07:38:33.710Z,70.7
2018-06-28T07:39:33.672Z,70.84
2018-06-28T07:40:33.646Z,70.64
2018-06-28T07:41:35.015Z,70.61
2018-06-28T07:42:33.762Z,70.8
2018-06-28T07:43:33.671Z,70.84
2018-06-28T07:44:33.680Z,70.7
2018-06-28T07:45:33.692Z,70.45
2018-06-28T07:46:33.691Z,70.54
2018-06-28T07:47:33.714Z,70.7
2018-06-28T07:48:34.228Z,70.45
2018-06-28T07:49:33.667Z,70.8
2018-06-28T07:50:33.676Z,70.84
2018-06-28T07:51:33.726Z,70.9
2018-06-28T07:52:33.676Z,70.9
2018-06-28T07:53:33.706Z,70.7
2018-06-28T07:54:33.736Z,70.9
2018-06-28T07:55:33.695Z,71.09
2018-06-28T07:56:33.702Z,71.28
2018-06-28T07:57:33.682Z,70.9
2018-06-28T07:58:33.714Z,70.61
2018-06-28T07:59:33.700Z,70.51
2018-06-28T08:00:33.700Z,71.09
2018-06-28T08:01:33.761Z,71.19
2018-06-28T08:02:33.933Z,70.9
2018-06-28T08:03:33.770Z,71.19
2018-06-28T08:04:33.707Z,71
2018-06-28T08:05:33.688Z,71.09
2018-06-28T08:06:33.770Z,71.19
2018-06-28T08:13:12.141Z,70.61
2018-06-28T08:14:12.055Z,70.7
2018-06-28T08:15:12.102Z,71.22
2018-06-28T08:16:12.083Z,71.12
2018-06-28T08:17:12.133Z,71.77
2018-06-28T08:18:12.109Z,71.38
2018-06-28T08:19:12.071Z,71.22
2018-06-28T08:20:12.098Z,71.12
2018-06-28T08:21:12.085Z,71.32
2018-06-28T08:22:12.136Z,71.12
2018-06-28T08:23:12.119Z,71.12
2018-06-28T08:24:12.131Z,71.22
2018-06-28T08:25:12.350Z,71.32
2018-06-28T08:26:12.142Z,71.38
2018-06-28T08:27:12.091Z,71.32
2018-06-28T08:28:12.137Z,71.19
2018-06-28T08:29:12.131Z,70.94
2018-06-28T08:30:12.090Z,71.22
2018-06-28T08:31:12.104Z,70.94
2018-06-28T08:32:12.096Z,71.22
2018-06-28T08:33:12.116Z,71.03
2018-06-28T08:34:12.118Z,71.22
2018-06-28T08:35:12.149Z,71.03
2018-06-28T08:36:12.189Z,71.12
2018-06-28T08:37:12.142Z,71.09
2018-06-28T08:38:12.120Z,70.74
2018-06-28T08:39:12.175Z,70.54
2018-06-28T08:40:12.670Z,70.64
2018-06-28T08:41:12.136Z,70.36
2018-06-28T08:42:12.194Z,71.12
2018-06-28T08:47:30.408Z,70.64
2018-06-28T08:47:42.229Z,71.22
2018-06-28T08:48:41.899Z,70.94
2018-06-28T08:49:41.888Z,70.74
2018-06-28T08:50:41.884Z,70.54
2018-06-28T08:51:41.893Z,71.22
2018-06-28T08:52:41.925Z,71.22
2018-06-28T08:53:41.921Z,70.74
2018-06-28T08:54:41.874Z,70.64
2018-06-28T08:55:41.926Z,71.12
2018-06-28T08:56:41.881Z,70.84
2018-06-28T08:57:42.049Z,70.84
2018-06-28T08:58:41.970Z,70.84
2018-06-28T08:59:41.894Z,70.84
2018-06-28T09:00:41.903Z,70.94
2018-06-28T09:01:41.908Z,70.64
2018-06-28T09:02:41.892Z,70.94
2018-06-28T09:03:41.902Z,70.94
2018-06-28T09:04:41.903Z,70.94
2018-06-28T09:05:41.974Z,71.06
2018-06-28T09:06:41.910Z,70.94
2018-06-28T09:07:41.920Z,70.94
2018-06-28T09:08:41.954Z,70.64
2018-06-28T09:09:41.942Z,70.74
2018-06-28T09:10:41.887Z,70.64
2018-06-28T09:11:41.921Z,70.94
2018-06-28T09:12:41.932Z,70.84
2018-06-28T09:13:41.965Z,70.64
2018-06-28T09:14:41.943Z,70.84
2018-06-28T09:15:41.949Z,71.26
2018-06-28T09:16:41.942Z,71.12
2018-06-28T09:17:41.910Z,71.22
2018-06-28T09:18:41.948Z,71.22
2018-06-28T09:19:41.972Z,70.74
2018-06-28T09:20:41.901Z,70.94
2018-06-28T09:21:41.912Z,71.32
2018-06-28T09:22:42.135Z,70.36
2018-06-28T09:23:41.975Z,70.64
2018-06-28T09:24:41.928Z,70.74
2018-06-28T09:25:41.933Z,70.84
2018-06-28T09:26:41.994Z,70.58
2018-06-28T09:27:41.921Z,70.48
2018-06-28T09:28:41.967Z,70.48
2018-06-28T09:29:41.969Z,70.48
2018-06-28T09:30:41.916Z,70.58
2018-06-28T09:31:41.927Z,70.87
2018-06-28T09:32:41.943Z,71.12
2018-06-28T09:33:41.949Z,70.84
2018-06-28T09:34:41.943Z,71.03
2018-06-28T09:35:42.038Z,70.84
2018-06-28T09:36:41.939Z,70.87
2018-06-28T09:37:41.937Z,70.58
2018-06-28T09:38:41.955Z,70.78
2018-06-28T09:39:41.981Z,70.68
2018-06-28T09:40:41.990Z,70.29
2018-06-28T09:41:41.937Z,70.64
2018-06-28T09:42:41.957Z,70.58
2018-06-28T09:43:41.960Z,70.97
2018-06-28T09:44:41.965Z,70.68
2018-06-28T09:45:41.969Z,70.97
2018-06-28T09:46:42.001Z,70.58
2018-06-28T09:47:42.040Z,70.58
2018-06-28T09:48:42.100Z,70.58
2018-06-28T09:49:41.989Z,70.58
2018-06-28T09:50:42.049Z,70.68
2018-06-28T09:51:41.991Z,70.68
2018-06-28T09:52:41.987Z,70.58
2018-06-28T09:53:41.965Z,70.16
2018-06-28T09:54:42.049Z,70.68
2018-06-28T09:55:41.991Z,70.39
2018-06-28T09:56:41.986Z,70.87
2018-06-28T09:57:41.966Z,70.97
2018-06-28T09:58:41.997Z,70.87
2018-06-28T09:59:41.979Z,69.97
2018-06-28T10:00:41.996Z,70.58
2018-06-28T10:01:42.017Z,70.29
2018-06-28T10:02:42.034Z,70.2
2018-06-28T10:03:42.007Z,70.2
2018-06-28T10:04:41.994Z,70.58
2018-06-28T10:05:42.122Z,70.58
2018-06-28T10:06:42.027Z,70.68
2018-06-28T10:07:42.014Z,70.78
2018-06-28T10:08:42.016Z,70.87
2018-06-28T10:09:42.048Z,70.68
2018-06-28T10:10:42.024Z,70.68
2018-06-28T10:11:42.038Z,70.58
2018-06-28T10:12:42.065Z,70.68
2018-06-28T10:13:42.022Z,70.87
2018-06-28T10:14:42.146Z,70.68
2018-06-28T10:15:42.066Z,70.78
2018-06-28T10:16:42.041Z,70.58
2018-06-28T10:17:42.030Z,70.78
2018-06-28T10:18:42.092Z,70.78
2018-06-28T10:19:42.042Z,70.68
2018-06-28T10:20:42.023Z,70.64
2018-06-28T10:21:42.049Z,70.68
2018-06-28T10:22:42.083Z,71.06
2018-06-28T10:23:42.068Z,70.39
2018-06-28T10:24:42.123Z,71.16
2018-06-28T10:25:42.052Z,70.97
2018-06-28T10:26:42.057Z,70.78
2018-06-28T10:27:42.068Z,70.97
2018-06-28T10:28:42.108Z,70.78
2018-06-28T10:29:42.159Z,71.06
2018-06-28T10:30:42.029Z,70.78
2018-06-28T10:31:42.068Z,70.87
2018-06-28T10:32:42.164Z,70.58
2018-06-28T10:33:42.079Z,70.48
2018-06-28T10:34:42.089Z,70.97
2018-06-28T10:35:42.097Z,70.68
2018-06-28T10:36:42.052Z,70.48
2018-06-28T10:37:42.093Z,71.06
2018-06-28T10:38:42.100Z,70.39
2018-06-28T10:39:42.065Z,70.39
2018-06-28T10:40:42.045Z,70.2
2018-06-28T10:41:42.107Z,70.29
2018-06-28T10:42:42.085Z,71.06
2018-06-28T10:43:42.173Z,70.58
2018-06-28T10:44:42.123Z,70.58
2018-06-28T10:45:42.132Z,70.68
2018-06-28T10:46:42.087Z,70.68
2018-06-28T10:47:42.610Z,70.78
2018-06-28T10:48:42.112Z,70.68
2018-06-28T10:49:42.080Z,70.87
2018-06-28T10:50:42.114Z,70.78
2018-06-28T10:51:42.151Z,70.48
2018-06-28T10:52:42.161Z,70.58
2018-06-28T10:53:42.134Z,70.68
2018-06-28T10:54:42.121Z,70.78
2018-06-28T10:55:42.127Z,70.48
2018-06-28T10:56:42.099Z,70.58
2018-06-28T10:57:42.162Z,70.29
2018-06-28T10:58:42.097Z,70.2
2018-06-28T10:59:42.128Z,70.2
2018-06-28T11:00:42.110Z,70.39
2018-06-28T11:01:42.234Z,70.39
2018-06-28T11:02:42.094Z,70.58
2018-06-28T11:03:42.110Z,70.2
2018-06-28T11:04:42.145Z,70.1
2018-06-28T11:05:42.150Z,70.39
2018-06-28T11:06:42.215Z,70.2
2018-06-28T11:07:42.282Z,70.2
2018-06-28T11:08:42.260Z,70.1
2018-06-28T11:09:42.216Z,70.1
2018-06-28T11:10:42.123Z,70.48
2018-06-28T11:11:42.125Z,70.1
2018-06-28T11:12:42.161Z,70.29
2018-06-28T11:13:42.167Z,69.71
2018-06-28T11:14:42.134Z,70
2018-06-28T11:15:42.218Z,70
2018-06-28T11:16:42.234Z,69.42
2018-06-28T11:17:42.548Z,69.52
2018-06-28T11:18:42.230Z,70
2018-06-28T11:19:42.166Z,69.32
2018-06-28T11:20:42.185Z,69.71
2018-06-28T11:21:42.144Z,69.62
2018-06-28T11:22:42.181Z,69.62
2018-06-28T11:23:42.182Z,69.71
2018-06-28T11:24:42.137Z,69.62
2018-06-28T11:25:42.167Z,69.62
2018-06-28T11:26:42.262Z,69.52
2018-06-28T11:27:42.194Z,69.9
2018-06-28T11:28:42.168Z,69.9
2018-06-28T11:29:42.199Z,69.52
2018-06-28T11:30:42.141Z,69.52
2018-06-28T11:31:42.158Z,69.81
2018-06-28T11:32:42.152Z,69.52
2018-06-28T11:33:42.186Z,69.62
2018-06-28T11:34:42.162Z,69.52
2018-06-28T11:35:42.184Z,69.71
2018-06-28T11:36:42.167Z,69.52
2018-06-28T11:37:42.171Z,69.9
2018-06-28T11:38:42.223Z,69.52
2018-06-28T11:39:42.506Z,69.71
2018-06-28T11:40:42.290Z,69.62
2018-06-28T11:41:42.296Z,69.62
2018-06-28T11:42:42.233Z,69.71
2018-06-28T11:43:42.231Z,69.71
2018-06-28T11:44:42.216Z,69.81
2018-06-28T11:45:42.188Z,69.81
2018-06-28T11:46:42.178Z,69.71
2018-06-28T11:47:42.177Z,69.62
2018-06-28T11:48:42.266Z,69.81
2018-06-28T11:49:42.217Z,69.9
2018-06-28T11:50:42.197Z,69.71
2018-06-28T11:51:42.210Z,69.42
2018-06-28T11:52:42.192Z,69.71
2018-06-28T11:53:42.197Z,69.81
2018-06-28T11:54:42.243Z,69.84
2018-06-28T11:55:42.229Z,69.52
2018-06-28T11:56:42.244Z,69.71
2018-06-28T11:57:42.187Z,69.52
2018-06-28T11:58:42.308Z,69.71
2018-06-28T11:59:42.197Z,70
2018-06-28T12:00:42.228Z,69.81
2018-06-28T12:01:42.286Z,69.32
2018-06-28T12:02:42.223Z,69.42
2018-06-28T12:03:42.226Z,69.42
2018-06-28T12:04:42.422Z,69.62
2018-06-28T12:05:42.324Z,69.62
2018-06-28T12:06:42.220Z,69.62
2018-06-28T12:07:42.228Z,69.71
2018-06-28T12:08:42.265Z,69.32
2018-06-28T12:09:42.248Z,69.52
2018-06-28T12:10:42.314Z,69.9
2018-06-28T12:11:42.284Z,70
2018-06-28T12:12:42.239Z,69.62
2018-06-28T12:13:42.257Z,69.32
2018-06-28T12:14:42.284Z,69.71
2018-06-28T12:15:42.316Z,69.46
2018-06-28T12:16:42.310Z,69.62
2018-06-28T12:17:42.331Z,69.26
2018-06-28T12:18:42.272Z,69.42
2018-06-28T12:19:42.264Z,69.42
2018-06-28T12:20:42.239Z,69.52
2018-06-28T12:21:42.322Z,69.32
2018-06-28T12:22:42.301Z,69.56
2018-06-28T12:23:42.314Z,69.32
2018-06-28T12:24:42.314Z,69.42
2018-06-28T12:25:42.378Z,69.32
2018-06-28T12:26:42.338Z,69.62
2018-06-28T12:27:42.319Z,69.42
2018-06-28T12:28:42.347Z,69.36
2018-06-28T12:29:42.373Z,69.62
2018-06-28T12:30:42.305Z,69.23
2018-06-28T12:31:42.265Z,69.42
2018-06-28T12:32:42.311Z,69.32
2018-06-28T12:33:42.304Z,69.32
2018-06-28T12:34:42.275Z,69.13
2018-06-28T12:35:42.306Z,69.32
2018-06-28T12:36:42.289Z,69.62
2018-06-28T12:37:42.366Z,69.26
2018-06-28T12:38:42.330Z,69.42
2018-06-28T12:39:42.312Z,69.32
2018-06-28T12:40:42.296Z,69.46
2018-06-28T12:41:42.327Z,69.26
2018-06-28T12:42:42.352Z,69.42
2018-06-28T12:43:42.340Z,69.42
2018-06-28T12:44:42.346Z,69.32
2018-06-28T12:45:42.326Z,69.52
2018-06-28T12:46:42.334Z,69.42
2018-06-28T12:47:42.283Z,69.42
2018-06-28T12:48:42.349Z,69.52
2018-06-28T12:49:42.282Z,69.32
2018-06-28T12:50:42.313Z,69.32
2018-06-28T12:51:42.309Z,69.32
2018-06-28T12:52:42.348Z,69.62
2018-06-28T12:53:42.355Z,69.52
2018-06-28T12:54:42.352Z,69.42
2018-06-28T12:55:42.322Z,69.52
2018-06-28T12:56:42.318Z,69.42
2018-06-28T12:57:42.426Z,69.04
2018-06-28T12:58:42.370Z,69.42
2018-06-28T12:59:42.321Z,69.42
2018-06-28T13:00:42.457Z,69.32
2018-06-28T13:01:42.349Z,69.52
2018-06-28T13:02:42.356Z,68.98
2018-06-28T13:03:42.347Z,69.04
2018-06-28T13:04:42.371Z,69.04
2018-06-28T13:05:42.358Z,69.17